Time;durP1;ratioP1;P1;durP2;ratioP2;P2;SDS_P1;SDS_P2;PMS_P1;PMS_P2;Temp;Humidity;BMP_temperature;BMP_pressure;BME280_temperature;BME280_humidity;BME280_pressure;Samples;Min_cycle;Max_cycle;Signal;HPM_P1;HPM_P2
2022/07/02 00:00:22;;;;;;;4.00;2.77;;;;;;;18.30;80.93;99017.08;1701274;84;27387;-63
2022/07/02 00:02:52;;;;;;;6.10;2.92;;;;;;;18.29;80.43;99011.88;1701141;84;25724;-61
2022/07/02 00:05:26;;;;;;;;;;;;;;;18.28;80.56;99013.05;1686113;85;25744;-62
2022/07/02 00:07:50;;;;;;;3.45;2.87;;;;;;;18.30;80.67;99017.65;1683413;84;25620;-63
2022/07/02 00:10:20;;;;;;;3.55;2.87;;;;;;;18.30;80.55;99018.46;1701423;84;25617;-63
2022/07/02 00:12:46;;;;;;;4.97;2.95;;;;;;;18.33;81.00;99030.80;1701173;84;28475;-62
2022/07/02 00:15:13;;;;;;;4.28;2.80;;;;;;;18.31;81.23;99035.32;1700790;84;26268;-62
2022/07/02 00:17:39;;;;;;;3.30;3.00;;;;;;;18.29;81.13;99037.66;1701331;84;25492;-62
2022/07/02 00:20:07;;;;;;;5.85;3.10;;;;;;;18.31;81.34;99042.86;1701273;84;26670;-62
2022/07/02 00:22:38;;;;;;;3.95;2.98;;;;;;;18.31;81.56;99042.25;1701424;83;25754;-62
2022/07/02 00:25:05;;;;;;;4.78;3.00;;;;;;;18.33;81.43;99034.96;1701432;83;28072;-62
2022/07/02 00:27:33;;;;;;;3.05;2.70;;;;;;;18.39;81.18;99037.70;1700503;83;25723;-62
2022/07/02 00:30:02;;;;;;;4.72;2.70;;;;;;;18.40;81.79;99045.45;1696652;84;25424;-61
2022/07/02 00:32:32;;;;;;;4.62;3.08;;;;;;;18.38;81.40;99047.77;1696721;84;25898;-59
2022/07/02 00:35:06;;;;;;;4.05;2.87;;;;;;;18.36;81.41;99041.19;1696714;84;25730;-62
2022/07/02 00:37:33;;;;;;;3.00;2.70;;;;;;;18.28;81.21;99040.20;1696920;84;28120;-62
2022/07/02 00:39:59;;;;;;;3.27;2.98;;;;;;;18.25;80.88;99043.68;1696484;84;25492;-62
2022/07/02 00:42:26;;;;;;;5.50;2.77;;;;;;;18.27;81.20;99041.94;1696923;84;25494;-62
2022/07/02 00:44:52;;;;;;;3.72;2.58;;;;;;;18.27;80.94;99033.62;1696706;84;25842;-62
2022/07/02 00:47:21;;;;;;;4.30;2.58;;;;;;;18.24;80.79;99028.21;1696828;84;25662;-61
2022/07/02 00:49:48;;;;;;;3.70;2.58;;;;;;;18.24;80.94;99028.78;1696432;84;27661;-60
2022/07/02 00:52:13;;;;;;;3.65;2.70;;;;;;;18.29;81.55;99024.37;1696770;84;25511;-62
2022/07/02 00:54:39;;;;;;;3.20;2.50;;;;;;;18.30;80.55;99025.97;1696702;84;25599;-63
2022/07/02 00:57:07;;;;;;;3.08;2.62;;;;;;;18.29;80.21;99032.69;1696513;84;25752;-62
2022/07/02 00:59:34;;;;;;;3.08;2.77;;;;;;;18.30;80.55;99030.95;1696752;84;25501;-62
2022/07/02 01:02:00;;;;;;;4.15;3.05;;;;;;;18.32;80.29;99036.14;1696713;84;28387;-62
2022/07/02 01:04:31;;;;;;;4.40;3.05;;;;;;;18.29;80.79;99038.23;1696246;84;25895;-62
2022/07/02 01:07:05;;;;;;;4.00;3.60;;;;;;;18.30;80.42;99035.67;1696514;84;25752;-62
2022/07/02 01:12:24;;;;;;;6.97;3.20;;;;;;;18.35;80.20;99025.72;1696605;84;25624;-62
2022/07/02 01:14:52;;;;;;;4.17;3.10;;;;;;;18.36;80.10;99016.22;1695769;84;27480;-62
2022/07/02 01:17:19;;;;;;;3.98;3.00;;;;;;;18.39;80.39;99014.72;1696542;84;26069;-61
2022/07/02 01:19:45;;;;;;;4.33;3.08;;;;;;;18.40;80.31;99019.88;1696776;84;25708;-61
2022/07/02 01:22:22;;;;;;;4.53;3.10;;;;;;;18.46;80.05;99037.09;1696577;84;26487;-62
2022/07/02 01:24:54;;;;;;;4.95;3.30;;;;;;;18.43;79.94;99035.03;1696781;84;25607;-61
2022/07/02 01:27:23;;;;;;;4.42;2.98;;;;;;;18.38;79.82;99048.58;1696688;84;27447;-61
2022/07/02 01:29:49;;;;;;;4.83;3.00;;;;;;;18.21;79.65;99062.78;1696306;83;25653;-61
2022/07/02 01:32:16;;;;;;;4.47;2.87;;;;;;;18.11;79.73;99061.34;1696773;84;25709;-62
2022/07/02 01:34:50;;;;;;;3.87;3.02;;;;;;;18.06;79.58;99061.81;1696583;84;25852;-63
2022/07/02 01:37:19;;;;;;;4.55;3.00;;;;;;;17.99;80.10;99059.42;1696694;84;25714;-62
2022/07/02 01:39:47;;;;;;;4.90;4.03;;;;;;;17.87;79.90;99063.84;1696924;84;27362;-62
2022/07/02 01:42:14;;;;;;;5.12;4.03;;;;;;;17.83;79.72;99069.06;1696613;84;26108;-62
2022/07/02 01:44:42;;;;;;;4.85;4.08;;;;;;;17.83;79.73;99067.67;1696344;84;25492;-62
2022/07/02 01:47:10;;;;;;;6.78;5.70;;;;;;;17.80;79.78;99060.31;1696639;84;26036;-59
2022/07/02 01:49:38;;;;;;;6.28;5.53;;;;;;;17.81;79.42;99051.39;1696765;84;25448;-60
2022/07/02 01:52:06;;;;;;;6.05;5.10;;;;;;;17.78;79.64;99065.95;1696779;84;27633;-62
2022/07/02 01:54:34;;;;;;;7.25;5.45;;;;;;;17.73;79.61;99062.07;1696508;84;25717;-61
2022/07/02 01:57:01;;;;;;;8.13;6.00;;;;;;;17.71;79.48;99056.06;1696669;84;25672;-62
2022/07/02 01:59:28;;;;;;;9.28;6.15;;;;;;;17.65;79.89;99062.44;1668786;84;26621;-63
2022/07/02 02:01:55;;;;;;;6.35;5.03;;;;;;;17.65;79.78;99060.45;1696845;84;25598;-62
2022/07/02 02:04:21;;;;;;;6.28;5.50;;;;;;;17.64;79.70;99060.24;1696666;84;28165;-62
2022/07/02 02:06:48;;;;;;;9.35;5.92;;;;;;;17.64;79.57;99063.02;1696478;84;25625;-63
2022/07/02 02:09:14;;;;;;;5.75;5.22;;;;;;;17.60;80.12;99056.56;1696814;84;25622;-62
2022/07/02 02:11:40;;;;;;;6.35;5.28;;;;;;;17.56;79.90;99053.68;1696490;84;25679;-62
2022/07/02 02:14:06;;;;;;;6.92;5.28;;;;;;;17.56;80.12;99049.52;1696894;84;25439;-61
2022/07/02 02:16:33;;;;;;;7.92;5.22;;;;;;;17.53;79.89;99046.67;1696749;84;28454;-62
2022/07/02 02:19:00;;;;;;;7.05;5.62;;;;;;;17.51;80.21;99051.74;1696385;84;25511;-62
2022/07/02 02:21:29;;;;;;;6.85;5.28;;;;;;;17.50;79.89;99058.45;1696523;84;25590;-61
2022/07/02 02:23:57;;;;;;;8.38;5.60;;;;;;;17.52;79.73;99058.89;1692003;84;25693;-62
2022/07/02 02:26:26;;;;;;;6.75;5.70;;;;;;;17.48;79.70;99058.80;1696639;84;25439;-62
2022/07/02 02:28:53;;;;;;;7.67;5.45;;;;;;;17.52;79.86;99067.20;1698175;83;27430;-62
2022/07/02 02:31:22;;;;;;;9.70;5.67;;;;;;;17.48;79.69;99071.27;1700765;83;25708;-63
2022/07/02 02:33:49;;;;;;;8.85;5.85;;;;;;;17.47;79.72;99077.95;1701234;84;25606;-63
2022/07/02 02:36:15;;;;;;;6.20;5.25;;;;;;;17.45;80.00;99074.73;1700854;84;26266;-62
2022/07/02 02:38:41;;;;;;;7.25;5.67;;;;;;;17.43;79.77;99078.42;1701256;83;25456;-62
2022/07/02 02:41:09;;;;;;;7.92;6.12;;;;;;;17.32;79.46;99080.88;1700871;84;27406;-59
2022/07/02 02:43:38;;;;;;;6.90;5.08;;;;;;;17.34;79.42;99080.52;1700876;84;25714;-63
2022/07/02 02:46:06;;;;;;;6.83;5.55;;;;;;;17.36;79.49;99081.78;1683789;85;25483;-62
2022/07/02 02:48:35;;;;;;;8.50;5.65;;;;;;;17.39;79.38;99089.39;1701189;83;26451;-62
2022/07/02 02:51:02;;;;;;;7.00;5.47;;;;;;;17.38;79.29;99087.78;1701153;84;26110;-62
2022/07/02 02:53:28;;;;;;;6.22;4.92;;;;;;;17.37;79.20;99093.67;1701084;84;27451;-61
2022/07/02 02:55:53;;;;;;;9.68;6.08;;;;;;;17.28;78.89;99096.58;1683701;85;25478;-62
2022/07/02 02:58:19;;;;;;;8.03;5.72;;;;;;;17.26;79.34;99108.01;1701212;84;25820;-62
2022/07/02 03:00:46;;;;;;;8.10;6.03;;;;;;;17.26;79.44;99109.95;1701156;84;26887;-62
2022/07/02 03:03:12;;;;;;;6.83;5.10;;;;;;;17.30;79.33;99112.28;1701208;84;25713;-62
2022/07/02 03:05:38;;;;;;;6.55;5.60;;;;;;;17.30;79.80;99112.28;1701217;84;26966;-62
2022/07/02 03:08:05;;;;;;;7.87;5.87;;;;;;;17.29;79.21;99112.03;1701017;84;25728;-62
2022/07/02 03:10:31;;;;;;;8.58;6.03;;;;;;;17.27;79.22;99115.16;1701107;84;25748;-59
2022/07/02 03:12:57;;;;;;;6.53;5.62;;;;;;;17.28;79.54;99109.05;1700910;84;26779;-63
2022/07/02 03:15:24;;;;;;;7.33;5.62;;;;;;;17.35;79.35;99109.83;1701375;84;25475;-63
2022/07/02 03:17:50;;;;;;;7.72;5.50;;;;;;;17.33;79.34;99117.70;1701030;84;26788;-61
2022/07/02 03:20:16;;;;;;;9.70;6.00;;;;;;;17.32;79.12;99132.71;1701145;84;25757;-63
2022/07/02 03:22:42;;;;;;;7.30;5.40;;;;;;;17.30;79.25;99112.28;1683792;85;25675;-63
2022/07/02 03:25:11;;;;;;;7.50;5.92;;;;;;;17.30;79.30;99117.23;1701192;83;25786;-61
2022/07/02 03:27:36;;;;;;;6.95;5.90;;;;;;;17.35;79.44;99120.91;1700885;84;25468;-62
2022/07/02 03:30:03;;;;;;;10.40;6.40;;;;;;;17.34;79.30;99124.27;1701148;83;28265;-61
2022/07/02 03:32:31;;;;;;;9.58;6.58;;;;;;;17.30;79.27;99129.69;1701019;83;25766;-62
2022/07/02 03:34:57;;;;;;;10.68;6.47;;;;;;;17.31;79.37;99122.20;1701041;83;25673;-62
2022/07/02 03:37:26;;;;;;;9.03;6.50;;;;;;;17.30;78.98;99123.36;1701142;84;26493;-62
2022/07/02 03:39:51;;;;;;;8.73;6.25;;;;;;;17.30;78.99;99128.30;1701100;83;25756;-61
2022/07/02 03:42:17;;;;;;;9.98;6.53;;;;;;;17.27;78.96;99124.05;1701371;84;27446;-63
2022/07/02 03:44:43;;;;;;;11.40;7.08;;;;;;;17.29;78.91;99130.86;1701280;84;25669;-63
2022/07/02 03:47:09;;;;;;;8.48;6.60;;;;;;;17.29;79.06;99124.50;1701311;83;25733;-62
2022/07/02 03:49:35;;;;;;;10.40;7.10;;;;;;;17.30;78.88;99135.83;1701257;84;25772;-62
2022/07/02 03:52:02;;;;;;;9.58;6.72;;;;;;;17.32;79.07;99134.88;1701274;83;25633;-63
2022/07/02 03:54:28;;;;;;;8.30;6.20;;;;;;;17.33;79.33;99140.67;1701173;84;27765;-63
2022/07/02 03:56:54;;;;;;;11.30;6.53;;;;;;;17.35;79.09;99137.53;1683807;85;25768;-63
2022/07/02 03:59:20;;;;;;;8.83;6.65;;;;;;;17.38;78.88;99141.80;1701330;84;25542;-61
2022/07/02 04:01:46;;;;;;;7.45;6.05;;;;;;;17.47;79.12;99143.06;1701328;84;25608;-62
2022/07/02 04:04:12;;;;;;;7.87;5.87;;;;;;;17.48;78.85;99140.53;1701290;84;25764;-63
2022/07/02 04:06:38;;;;;;;7.78;5.67;;;;;;;17.42;78.84;99134.41;1701200;84;27427;-62
2022/07/02 04:09:04;;;;;;;7.53;6.00;;;;;;;17.50;78.68;99141.58;1701221;84;25728;-62
2022/07/02 04:11:30;;;;;;;7.60;5.75;;;;;;;17.54;78.67;99143.87;1700962;84;25432;-62
2022/07/02 04:13:56;;;;;;;8.48;6.30;;;;;;;17.56;78.84;99143.73;1701346;84;25971;-63
2022/07/02 04:16:22;;;;;;;8.80;5.83;;;;;;;17.55;78.32;99150.45;1701344;84;25378;-61
2022/07/02 04:18:47;;;;;;;7.17;5.40;;;;;;;17.57;78.26;99151.48;1701307;84;27344;-61
2022/07/02 04:21:13;;;;;;;8.38;5.47;;;;;;;17.55;78.09;99148.24;1701217;84;25965;-58
2022/07/02 04:23:40;;;;;;;7.58;5.28;;;;;;;17.52;78.29;99161.41;1701385;84;25737;-62
2022/07/02 04:26:05;;;;;;;7.62;5.30;;;;;;;17.51;78.08;99157.84;1701177;84;25784;-63
2022/07/02 04:28:32;;;;;;;6.78;5.65;;;;;;;17.53;78.47;99158.29;1701352;84;25445;-62
2022/07/02 04:30:58;;;;;;;6.37;4.97;;;;;;;17.52;78.60;99153.09;1683444;84;28136;-62
2022/07/02 04:33:24;;;;;;;6.42;4.95;;;;;;;17.55;78.51;99151.02;1701169;84;25593;-62
2022/07/02 04:35:50;;;;;;;6.30;4.50;;;;;;;17.52;78.23;99152.53;1701228;84;25593;-63
2022/07/02 04:38:23;;;;;;;9.50;4.85;;;;;;;17.51;78.65;99159.23;1701258;84;25719;-62
2022/07/02 04:40:54;;;;;;;6.47;4.65;;;;;;;17.51;78.31;99161.19;1701068;84;26512;-62
2022/07/02 04:43:27;;;;;;;5.72;4.70;;;;;;;17.49;77.99;99159.33;1700999;84;27683;-60
2022/07/02 04:46:00;;;;;;;6.35;5.10;;;;;;;17.54;78.37;99150.80;1683599;85;25664;-54
2022/07/02 04:48:32;;;;;;;6.62;4.75;;;;;;;17.58;78.21;99148.93;1701206;84;25621;-56
2022/07/02 04:51:04;;;;;;;7.40;4.70;;;;;;;17.61;77.69;99151.57;1701006;83;25785;-55
2022/07/02 04:53:36;;;;;;;6.53;5.00;;;;;;;17.59;77.74;99156.11;1700978;84;25655;-55
2022/07/02 04:56:10;;;;;;;7.58;5.60;;;;;;;17.62;77.35;99167.06;1683801;85;27543;-61
2022/07/02 04:58:36;;;;;;;6.55;5.55;;;;;;;17.66;77.81;99174.33;1701445;83;25462;-52
2022/07/02 05:01:02;;;;;;;7.15;5.50;;;;;;;17.70;77.25;99176.41;1701333;84;25655;-55
2022/07/02 05:03:28;;;;;;;6.50;5.50;;;;;;;17.72;77.28;99172.13;1701243;84;25721;-56
2022/07/02 05:05:54;;;;;;;8.18;5.58;;;;;;;17.77;77.03;99175.23;1701309;84;25681;-53
2022/07/02 05:08:26;;;;;;;8.08;5.55;;;;;;;17.87;77.27;99185.83;1700937;84;28545;-51
2022/07/02 05:10:49;;;;;;;6.30;5.30;;;;;;;17.91;77.23;99192.87;1700829;84;25674;-60
2022/07/02 05:13:15;;;;;;;7.20;5.22;;;;;;;17.97;76.79;99187.88;1701274;84;26140;-49
2022/07/02 05:15:41;;;;;;;7.35;5.92;;;;;;;17.99;76.53;99191.91;1701262;84;25697;-52
2022/07/02 05:18:07;;;;;;;6.37;5.20;;;;;;;18.03;76.82;99194.23;1701574;84;25456;-49
2022/07/02 05:20:32;;;;;;;5.28;4.78;;;;;;;18.00;76.64;99192.73;1701357;84;27620;-49
2022/07/02 05:22:58;;;;;;;7.17;5.05;;;;;;;17.97;76.99;99205.34;1701010;84;25610;-50
2022/07/02 05:25:25;;;;;;;6.95;5.25;;;;;;;17.99;77.02;99217.47;1700853;84;25660;-55
2022/07/02 05:27:50;;;;;;;5.90;5.30;;;;;;;17.96;77.01;99234.20;1701296;84;25879;-51
2022/07/02 05:30:23;;;;;;;7.80;6.05;;;;;;;18.03;76.89;99245.53;1701252;83;25617;-55
2022/07/02 05:32:52;;;;;;;9.90;7.78;;;;;;;18.03;76.31;99249.70;1683482;84;27376;-60
2022/07/02 05:35:24;;;;;;;9.13;7.22;;;;;;;17.97;76.26;99244.73;1700985;83;25821;-55
2022/07/02 05:37:53;;;;;;;7.92;6.90;;;;;;;17.84;75.63;99245.34;1701155;83;25677;-55
2022/07/02 05:40:26;;;;;;;8.98;7.40;;;;;;;17.77;76.25;99252.28;1701089;84;26450;-61
2022/07/02 05:42:52;;;;;;;7.33;6.55;;;;;;;17.71;76.14;99261.98;1683554;85;25623;-57
2022/07/02 05:45:19;;;;;;;7.33;6.60;;;;;;;17.67;76.08;99267.40;1701270;84;27457;-62
2022/07/02 05:47:45;;;;;;;7.25;6.50;;;;;;;17.64;76.56;99267.27;1701062;84;25519;-59
2022/07/02 05:50:11;;;;;;;7.33;6.62;;;;;;;17.59;76.21;99275.83;1701109;84;25770;-59
2022/07/02 05:52:38;;;;;;;7.17;6.47;;;;;;;17.53;76.39;99282.98;1701286;84;25700;-59
2022/07/02 05:55:06;;;;;;;8.83;7.10;;;;;;;17.52;76.74;99287.48;1701128;84;25720;-58
2022/07/02 05:57:32;;;;;;;9.50;7.03;;;;;;;17.51;76.23;99291.41;1700900;84;27432;-59
2022/07/02 05:59:58;;;;;;;8.43;7.22;;;;;;;17.47;76.38;99299.59;1701062;84;25814;-62
2022/07/02 06:02:24;;;;;;;6.47;5.72;;;;;;;17.51;76.15;99298.34;1701116;84;25614;-55
2022/07/02 06:04:50;;;;;;;7.33;6.58;;;;;;;17.47;76.68;99304.34;1701293;84;25759;-59
2022/07/02 06:10:02;;;;;;;7.37;6.22;;;;;;;17.41;76.68;99303.74;1700871;84;25697;-59
2022/07/02 06:12:36;;;;;;;7.17;6.17;;;;;;;17.40;76.96;99313.22;1701130;84;25843;-52
2022/07/02 06:15:04;;;;;;;8.18;6.08;;;;;;;17.44;76.52;99312.75;1683499;85;25701;-50
2022/07/02 06:17:30;;;;;;;7.62;6.28;;;;;;;17.39;76.51;99318.53;1700932;84;25910;-62
2022/07/02 06:19:57;;;;;;;7.60;6.12;;;;;;;17.32;76.67;99319.09;1700945;84;25432;-59
2022/07/02 06:22:24;;;;;;;8.55;6.47;;;;;;;17.30;76.57;99322.20;1700849;83;29399;-59
2022/07/02 06:24:52;;;;;;;7.35;6.65;;;;;;;17.32;76.47;99326.02;1700896;84;25837;-55
2022/07/02 06:27:19;;;;;;;7.20;6.30;;;;;;;17.34;76.76;99329.26;1700978;84;25491;-50
2022/07/02 06:29:48;;;;;;;7.60;5.83;;;;;;;17.37;77.02;99335.50;1701015;83;25778;-49
2022/07/02 06:32:14;;;;;;;9.35;6.92;;;;;;;17.38;76.86;99335.72;1683247;85;25614;-52
2022/07/02 06:34:40;;;;;;;8.53;6.50;;;;;;;17.33;76.75;99337.91;1700773;84;27427;-52
2022/07/02 06:37:07;;;;;;;8.08;6.08;;;;;;;17.33;77.25;99343.45;1700877;84;25705;-53
2022/07/02 06:39:34;;;;;;;8.58;6.90;;;;;;;17.29;76.72;99341.93;1700994;84;25469;-63
2022/07/02 06:42:19;;;;;;;8.68;6.95;;;;;;;17.30;76.84;99344.36;1700952;84;26227;-63
2022/07/02 06:44:56;;;;;;;9.63;7.05;;;;;;;17.34;76.71;99336.75;1700952;83;25435;-62
2022/07/02 06:47:24;;;;;;;8.68;6.25;;;;;;;17.39;76.83;99347.03;1701216;84;27516;-63
2022/07/02 06:49:51;;;;;;;9.85;7.00;;;;;;;17.38;76.79;99354.30;1701019;84;25710;-62
2022/07/02 06:52:18;;;;;;;8.75;6.78;;;;;;;17.34;76.75;99354.75;1701255;84;25705;-63
2022/07/02 06:54:46;;;;;;;11.33;7.25;;;;;;;17.36;77.37;99358.80;1700861;84;25702;-63
2022/07/02 06:57:12;;;;;;;8.93;6.85;;;;;;;17.37;77.25;99356.84;1700992;84;25669;-62
2022/07/02 06:59:39;;;;;;;7.67;6.50;;;;;;;17.43;76.93;99359.63;1701222;84;27956;-63
2022/07/02 07:02:06;;;;;;;9.48;6.28;;;;;;;17.47;76.80;99361.94;1700721;83;25677;-62
2022/07/02 07:04:35;;;;;;;7.70;7.00;;;;;;;17.51;77.01;99362.08;1700990;83;25646;-56
2022/07/02 07:07:07;;;;;;;8.33;6.80;;;;;;;17.50;76.39;99357.09;1701290;84;26314;-61
2022/07/02 07:09:34;;;;;;;7.40;6.67;;;;;;;17.46;76.40;99356.73;1701054;83;25488;-58
2022/07/02 07:12:06;;;;;;;7.60;6.80;;;;;;;17.45;76.56;99361.49;1701125;84;27423;-62
2022/07/02 07:14:34;;;;;;;7.90;6.62;;;;;;;17.49;76.39;99364.37;1701152;84;25976;-63
2022/07/02 07:17:01;;;;;;;8.05;6.85;;;;;;;17.58;76.68;99365.08;1683939;85;25596;-63
2022/07/02 07:19:28;;;;;;;7.60;6.75;;;;;;;17.63;76.10;99359.89;1701258;84;25765;-62
2022/07/02 07:21:55;;;;;;;10.32;6.92;;;;;;;17.62;75.97;99373.53;1700979;84;25768;-63
2022/07/02 07:24:22;;;;;;;8.95;7.00;;;;;;;17.61;75.57;99369.12;1701087;84;27645;-63
2022/07/02 07:26:49;;;;;;;7.58;6.83;;;;;;;17.61;76.11;99371.89;1700948;84;25710;-62
2022/07/02 07:29:16;;;;;;;10.43;6.78;;;;;;;17.67;76.14;99372.72;1701111;83;25428;-62
2022/07/02 07:31:43;;;;;;;8.98;7.28;;;;;;;17.75;76.71;99377.11;1725870;83;26012;-61
2022/07/02 07:34:10;;;;;;;8.65;7.33;;;;;;;17.74;76.44;99375.50;1729587;82;25613;-61
2022/07/02 07:36:37;;;;;;;8.28;7.28;;;;;;;17.73;76.01;99376.06;1729690;83;27379;-60
2022/07/02 07:39:05;;;;;;;8.20;7.08;;;;;;;17.73;75.65;99378.05;1729507;81;25604;-63
2022/07/02 07:41:32;;;;;;;9.03;7.20;;;;;;;17.73;75.74;99380.22;1729353;83;25720;-61
2022/07/02 07:44:00;;;;;;;8.80;7.30;;;;;;;17.77;75.55;99385.90;1729709;83;25739;-63
2022/07/02 07:46:27;;;;;;;9.05;7.30;;;;;;;17.76;76.16;99392.02;1729651;82;25448;-63
2022/07/02 07:48:54;;;;;;;10.75;8.23;;;;;;;17.78;75.62;99385.55;1729460;83;27596;-62
2022/07/02 07:51:20;;;;;;;8.85;7.78;;;;;;;17.86;75.92;99385.22;1729428;82;25482;-63
2022/07/02 07:53:47;;;;;;;9.05;7.95;;;;;;;17.84;75.04;99379.80;1729451;83;25499;-63
2022/07/02 07:56:16;;;;;;;9.83;7.50;;;;;;;17.88;75.36;99393.19;1729642;83;25848;-59
2022/07/02 07:58:43;;;;;;;9.15;8.03;;;;;;;17.87;75.22;99385.44;1729434;83;25601;-55
2022/07/02 08:01:10;;;;;;;8.28;6.72;;;;;;;17.95;75.06;99390.65;1729501;83;27892;-55
2022/07/02 08:03:37;;;;;;;7.87;7.05;;;;;;;17.98;74.52;99391.91;1729165;83;25596;-53
2022/07/02 08:06:05;;;;;;;11.05;7.97;;;;;;;18.04;74.76;99387.19;1728334;82;25422;-53
2022/07/02 08:08:31;;;;;;;9.55;6.95;;;;;;;18.11;73.69;99382.49;1729349;83;25811;-54
2022/07/02 08:10:58;;;;;;;9.58;7.87;;;;;;;18.20;74.13;99383.75;1729297;83;25645;-54
2022/07/02 08:13:25;;;;;;;9.20;7.78;;;;;;;18.21;73.90;99395.07;1729442;82;27403;-66
2022/07/02 08:15:52;;;;;;;11.12;8.00;;;;;;;18.20;74.05;99387.91;1729237;82;25675;-66
2022/07/02 08:18:19;;;;;;;9.48;8.18;;;;;;;18.23;74.67;99398.89;1729494;83;25662;-65
2022/07/02 08:20:45;;;;;;;9.30;8.20;;;;;;;18.23;74.58;99400.27;1729491;83;26265;-66
2022/07/02 08:23:12;;;;;;;9.40;8.05;;;;;;;18.23;74.45;99405.25;1729765;83;25661;-63
2022/07/02 08:25:38;;;;;;;9.25;7.80;;;;;;;18.22;73.98;99409.16;1729729;81;28090;-60
2022/07/02 08:28:05;;;;;;;8.90;7.95;;;;;;;18.21;73.45;99409.51;1729397;83;25632;-66
2022/07/02 08:30:32;;;;;;;8.60;7.65;;;;;;;18.15;73.29;99415.88;1722874;82;25648;-65
2022/07/02 08:32:59;;;;;;;7.97;7.05;;;;;;;18.11;73.45;99414.95;1700955;84;25849;-64
2022/07/02 08:35:26;;;;;;;9.83;8.15;;;;;;;18.10;73.27;99415.49;1701051;84;25755;-65
2022/07/02 08:37:53;;;;;;;9.45;7.60;;;;;;;18.14;73.84;99409.50;1700960;84;27547;-66
2022/07/02 08:40:25;;;;;;;12.75;8.90;;;;;;;18.24;73.37;99408.81;1701338;84;25693;-66
2022/07/02 08:42:54;;;;;;;9.58;8.13;;;;;;;18.31;72.97;99409.86;1700936;84;25723;-66
2022/07/02 08:45:23;;;;;;;9.40;8.10;;;;;;;18.36;73.01;99417.73;1701306;84;26295;-65
2022/07/02 08:47:52;;;;;;;11.40;8.30;;;;;;;18.37;73.03;99424.89;1701366;84;25865;-64
2022/07/02 08:50:21;;;;;;;10.63;8.80;;;;;;;18.40;73.76;99426.97;1684033;85;27530;-64
2022/07/02 08:52:51;;;;;;;12.88;9.10;;;;;;;18.40;73.37;99431.13;1700824;84;25492;-62
2022/07/02 08:55:19;;;;;;;10.53;8.83;;;;;;;18.35;73.32;99429.40;1701389;84;25495;-65
2022/07/02 08:57:47;;;;;;;9.15;8.20;;;;;;;18.34;74.37;99430.56;1700877;84;25933;-66
2022/07/02 09:00:18;;;;;;;13.35;8.38;;;;;;;18.40;74.42;99432.52;1701303;84;25710;-65
2022/07/02 09:02:45;;;;;;;11.25;8.43;;;;;;;18.53;73.30;99433.30;1701286;84;30056;-66
2022/07/02 09:05:13;;;;;;;9.48;7.87;;;;;;;18.64;73.73;99436.41;1700827;84;25681;-62
2022/07/02 09:07:40;;;;;;;9.65;7.60;;;;;;;18.72;73.55;99432.71;1701212;84;25704;-64
2022/07/02 09:10:09;;;;;;;8.85;7.30;;;;;;;18.86;73.28;99430.13;1701266;83;25688;-65
2022/07/02 09:12:36;;;;;;;8.53;6.87;;;;;;;19.06;72.46;99436.67;1701345;84;25451;-66
